YVR weather

Vancouver International Airport
Vancouver, British Columbia, Canada

Public forecast

Using degrees Celsius for public forecast. Weather courtesy of forecast.io.

Current aviation weather report (METAR) for Vancouver International Airport

Retrieved 2020/04/01 11:32 UTC (0 seconds ago):

CYVR 011132Z 08006KT 15SM FEW015 SCT033 SCT046 BKN066 BKN078 04/03 A3006 RMK SC1SC3SC1AC2AC1 SC TR SLP179

Aviation forecast (TAF) for Vancouver International Airport

Retrieved 2020/04/01 09:42 UTC (2 hours ago):

TAF TAF CYVR 010838Z 0109/0212 09008KT P6SM FEW040 SCT060 BKN210 TEMPO 0109/0118 P6SM -SHRA BKN020 OVC040 BECMG 0114/0116 VRB03KT FM011800 VRB03KT P6SM FEW020 SCT080 FM012200 29008KT P6SM FEW060 FM020600 07006KT P6SM SCT060 RMK NXT FCST BY 011200Z